createdAt,value
2022-11-10T00:00:34.273Z,21.85
2022-11-10T00:05:19.558Z,25.88
2022-11-10T00:10:04.883Z,20.35
2022-11-10T00:15:04.903Z,25.95
2022-11-10T00:19:50.391Z,18.90
2022-11-10T00:24:35.387Z,30.48
2022-11-10T00:29:20.828Z,22.95
2022-11-10T00:34:08.664Z,29.40
2022-11-10T00:38:54.455Z,20.70
2022-11-10T00:43:39.692Z,24.45
2022-11-10T00:48:25.246Z,23.63
2022-11-10T00:53:12.959Z,32.17
2022-11-10T00:57:58.294Z,26.60
2022-11-10T01:02:43.435Z,26.00
2022-11-10T01:07:28.692Z,26.92
2022-11-10T01:12:16.310Z,38.58
2022-11-10T01:17:01.604Z,50.13
2022-11-10T01:21:46.656Z,30.90
2022-11-10T01:26:31.931Z,24.60
2022-11-10T01:31:21.410Z,29.38
2022-11-10T01:36:07.195Z,22.33
2022-11-10T01:40:52.379Z,16.60
2022-11-10T01:45:49.718Z,26.08
2022-11-10T01:50:41.786Z,18.90
2022-11-10T01:55:28.409Z,21.23
2022-11-10T02:00:14.618Z,18.70
2022-11-10T02:05:01.369Z,18.23
2022-11-10T02:09:48.966Z,19.35
2022-11-10T02:14:34.396Z,17.92
2022-11-10T02:19:22.194Z,21.10
2022-11-10T02:24:11.764Z,16.42
2022-11-10T02:28:56.889Z,17.38
2022-11-10T02:33:42.295Z,18.73
2022-11-10T02:38:27.582Z,18.52
2022-11-10T02:43:18.363Z,17.52
2022-11-10T02:48:03.400Z,21.40
2022-11-10T02:52:48.684Z,22.00
2022-11-10T02:57:33.666Z,20.77
2022-11-10T03:02:21.542Z,22.50
2022-11-10T03:07:06.623Z,21.27
2022-11-10T03:11:51.979Z,19.90
2022-11-10T03:16:36.999Z,15.15
2022-11-10T03:21:24.959Z,15.55
2022-11-10T03:26:10.582Z,15.15
2022-11-10T03:30:55.887Z,18.05
2022-11-10T03:35:40.878Z,11.02
2022-11-10T03:40:28.753Z,16.00
2022-11-10T03:45:14.967Z,13.07
2022-11-10T03:50:00.223Z,16.42
2022-11-10T03:54:45.332Z,17.13
2022-11-10T03:59:33.505Z,13.35
2022-11-10T04:04:30.603Z,17.05
2022-11-10T04:09:15.887Z,17.77
2022-11-10T04:14:13.199Z,15.50
2022-11-10T04:19:01.129Z,16.75
2022-11-10T04:23:46.134Z,18.00
2022-11-10T04:28:31.386Z,14.25
2022-11-10T04:33:16.360Z,18.55
2022-11-10T04:38:04.212Z,18.02
2022-11-10T04:42:49.276Z,11.88
2022-11-10T04:47:34.551Z,12.98
2022-11-10T04:52:19.562Z,14.63
2022-11-10T04:57:07.452Z,17.17
2022-11-10T05:01:52.465Z,20.35
2022-11-10T05:06:38.024Z,16.60
2022-11-10T05:11:23.067Z,15.88
2022-11-10T05:16:11.484Z,18.45
2022-11-10T05:20:56.583Z,24.40
2022-11-10T05:25:44.876Z,17.73
2022-11-10T05:30:29.977Z,21.52
2022-11-10T05:35:18.051Z,21.70
2022-11-10T05:40:03.042Z,27.27
2022-11-10T05:44:48.379Z,22.05
2022-11-10T05:49:33.362Z,18.98
2022-11-10T05:54:21.348Z,20.55
2022-11-10T05:59:06.380Z,17.67
2022-11-10T06:03:51.696Z,21.15
2022-11-10T06:08:36.907Z,18.52
2022-11-10T06:13:25.625Z,20.30
2022-11-10T06:18:10.916Z,21.08
2022-11-10T06:23:04.110Z,26.67
2022-11-10T06:27:49.148Z,29.85
2022-11-10T06:32:37.989Z,30.48
2022-11-10T06:37:23.001Z,33.42
2022-11-10T06:42:08.419Z,26.10
2022-11-10T06:46:54.404Z,27.98
2022-11-10T06:51:42.033Z,28.10
2022-11-10T06:56:27.336Z,28.20
2022-11-10T07:01:12.419Z,32.78
2022-11-10T07:05:57.817Z,47.63
2022-11-10T07:10:45.721Z,26.67
2022-11-10T07:15:31.041Z,32.67
2022-11-10T07:20:16.032Z,18.23
2022-11-10T07:25:01.290Z,36.25
2022-11-10T07:29:48.883Z,48.40
2022-11-10T07:34:34.148Z,46.40
2022-11-10T07:39:19.168Z,179.70
2022-11-10T07:44:04.543Z,61.88
2022-11-10T07:48:52.228Z,38.53
2022-11-10T07:53:37.618Z,55.00
2022-11-10T07:58:22.623Z,32.30
2022-11-10T08:03:09.897Z,25.67
2022-11-10T08:07:58.608Z,28.73
2022-11-10T08:12:43.923Z,27.38
2022-11-10T08:17:29.071Z,21.85
2022-11-10T08:22:14.372Z,19.08
2022-11-10T08:27:01.959Z,19.10
2022-11-10T08:31:47.241Z,14.93
2022-11-10T08:36:32.240Z,18.42
2022-11-10T08:41:17.632Z,16.90
2022-11-10T08:46:05.269Z,19.40
2022-11-10T08:50:51.622Z,17.20
2022-11-10T08:55:37.434Z,20.38
2022-11-10T09:00:24.143Z,18.45
2022-11-10T09:05:13.097Z,15.02
2022-11-10T09:10:06.694Z,15.88
2022-11-10T09:14:52.749Z,16.58
2022-11-10T09:19:37.722Z,13.38
2022-11-10T09:24:31.001Z,11.52
2022-11-10T09:29:16.869Z,10.75
2022-11-10T09:34:02.132Z,13.23
2022-11-10T09:38:47.532Z,11.50
2022-11-10T09:43:43.591Z,10.30
2022-11-10T09:48:32.284Z,10.45
2022-11-10T09:53:22.583Z,11.63
2022-11-10T09:58:07.707Z,11.30
2022-11-10T10:03:02.676Z,11.35
2022-11-10T10:07:55.162Z,11.30
2022-11-10T10:12:52.682Z,9.30
2022-11-10T10:17:45.176Z,11.65
2022-11-10T10:22:49.015Z,11.10
2022-11-10T10:27:36.520Z,9.88
2022-11-10T10:32:22.844Z,10.43
2022-11-10T10:37:08.143Z,5.80
2022-11-10T10:41:55.725Z,6.20
2022-11-10T10:46:48.472Z,7.55
2022-11-10T10:51:34.221Z,4.03
2022-11-10T10:56:22.953Z,8.10
2022-11-10T11:01:24.942Z,7.78
2022-11-10T11:06:22.118Z,8.77
2022-11-10T11:11:13.154Z,9.68
2022-11-10T11:16:01.776Z,9.82
2022-11-10T11:20:55.959Z,10.60
2022-11-10T11:25:45.048Z,10.98
2022-11-10T11:30:42.208Z,8.50
2022-11-10T11:35:34.462Z,7.15
2022-11-10T11:45:22.654Z,6.63
2022-11-10T11:50:19.484Z,7.22
2022-11-10T11:55:18.324Z,10.85
2022-11-10T12:00:11.913Z,10.73
2022-11-10T12:05:13.206Z,9.02
2022-11-10T12:10:08.108Z,6.22
2022-11-10T12:14:59.643Z,11.60
2022-11-10T12:19:59.596Z,8.55
2022-11-10T12:25:05.811Z,7.57
2022-11-10T12:29:56.279Z,11.80
2022-11-10T12:34:45.628Z,6.18
2022-11-10T12:39:48.428Z,8.80
2022-11-10T12:44:38.642Z,7.82
2022-11-10T12:49:32.197Z,8.75
2022-11-10T12:54:20.909Z,8.73
2022-11-10T12:59:29.346Z,9.13
2022-11-10T13:04:17.819Z,9.10
2022-11-10T13:09:03.008Z,12.55
2022-11-10T13:13:52.213Z,6.18
2022-11-10T13:19:06.739Z,7.57
2022-11-10T13:24:22.051Z,10.18
2022-11-10T13:29:23.456Z,11.30
2022-11-10T13:34:13.805Z,7.55
2022-11-10T13:38:58.771Z,13.95
2022-11-10T13:43:51.649Z,19.52
2022-11-10T13:48:53.108Z,12.30
2022-11-10T13:53:52.476Z,11.57
2022-11-10T13:58:40.442Z,9.05
2022-11-10T14:03:57.880Z,8.85
2022-11-10T14:08:55.264Z,7.72
2022-11-10T14:13:45.859Z,7.63
2022-11-10T14:18:41.635Z,11.18
2022-11-10T14:23:32.300Z,8.57
2022-11-10T14:28:32.510Z,11.18
2022-11-10T14:33:18.386Z,7.13
2022-11-10T14:38:04.810Z,7.55
2022-11-10T14:42:50.232Z,12.95
2022-11-10T14:47:38.677Z,7.30
2022-11-10T14:52:24.034Z,11.65
2022-11-10T14:57:09.428Z,9.52
2022-11-10T15:01:57.637Z,7.03
2022-11-10T15:06:47.202Z,7.43
2022-11-10T15:11:37.508Z,8.73
2022-11-10T15:16:28.799Z,7.53
2022-11-10T15:21:16.074Z,14.67
2022-11-10T15:26:03.772Z,9.32
2022-11-10T15:30:53.943Z,10.32
2022-11-10T15:35:39.023Z,12.55
2022-11-10T15:40:36.874Z,9.80
2022-11-10T15:45:24.499Z,8.40
2022-11-10T15:50:15.253Z,10.40
2022-11-10T15:55:00.274Z,10.68
2022-11-10T15:59:46.104Z,13.23
2022-11-10T16:04:33.765Z,10.88
2022-11-10T16:09:19.054Z,9.63
2022-11-10T16:14:05.051Z,10.35
2022-11-10T16:18:50.368Z,14.88
2022-11-10T16:23:38.237Z,13.43
2022-11-10T16:28:26.422Z,18.67
2022-11-10T16:33:16.809Z,11.68
2022-11-10T16:38:01.826Z,18.60
2022-11-10T16:42:50.325Z,15.18
2022-11-10T16:47:35.447Z,16.10
2022-11-10T16:52:22.818Z,21.83
2022-11-10T16:57:15.069Z,19.20
2022-11-10T17:02:03.032Z,19.83
2022-11-10T17:06:48.049Z,13.80
2022-11-10T17:11:33.369Z,18.92
2022-11-10T17:16:31.724Z,16.90
2022-11-10T17:21:19.808Z,11.05
2022-11-10T17:26:05.164Z,16.60
2022-11-10T17:30:52.603Z,21.98
2022-11-10T17:35:45.694Z,22.38
2022-11-10T17:40:33.514Z,22.13
2022-11-10T17:45:22.801Z,23.35
2022-11-10T17:50:09.363Z,17.08
2022-11-10T17:54:54.321Z,20.65
2022-11-10T17:59:42.188Z,23.45
2022-11-10T18:04:27.197Z,20.23
2022-11-10T18:09:12.463Z,19.83
2022-11-10T18:13:57.631Z,25.92
2022-11-10T18:18:45.557Z,21.05
2022-11-10T18:23:30.589Z,21.02
2022-11-10T18:28:17.556Z,23.73
2022-11-10T18:33:04.183Z,27.60
2022-11-10T18:37:52.132Z,29.15
2022-11-10T18:42:37.266Z,36.33
2022-11-10T18:47:22.688Z,33.13
2022-11-10T18:52:07.936Z,32.00
2022-11-10T18:56:55.971Z,34.25
2022-11-10T19:01:41.361Z,38.40
2022-11-10T19:06:26.887Z,36.90
2022-11-10T19:11:16.369Z,38.63
2022-11-10T19:16:08.010Z,32.67
2022-11-10T19:20:52.984Z,34.07
2022-11-10T19:25:38.309Z,34.58
2022-11-10T19:30:23.312Z,31.38
2022-11-10T19:35:12.300Z,31.50
2022-11-10T19:39:57.320Z,32.38
2022-11-10T19:44:42.588Z,32.22
2022-11-10T19:49:27.709Z,31.30
2022-11-10T19:54:16.249Z,35.15
2022-11-10T19:59:02.065Z,33.17
2022-11-10T20:03:47.489Z,34.90
2022-11-10T20:08:33.305Z,33.60
2022-11-10T20:13:21.216Z,34.10
2022-11-10T20:18:06.791Z,32.67
2022-11-10T20:22:51.804Z,34.25
2022-11-10T20:27:37.064Z,32.03
2022-11-10T20:32:24.748Z,37.30
2022-11-10T20:37:10.092Z,31.02
2022-11-10T20:41:55.157Z,30.40
2022-11-10T20:46:54.021Z,30.60
2022-11-10T20:51:43.610Z,27.60
2022-11-10T20:56:30.180Z,30.27
2022-11-10T21:01:17.656Z,31.42
2022-11-10T21:06:03.269Z,37.03
2022-11-10T21:10:56.187Z,31.63
2022-11-10T21:15:44.180Z,29.33
2022-11-10T21:20:29.444Z,35.97
2022-11-10T21:25:15.287Z,33.72
2022-11-10T21:30:03.486Z,32.15
2022-11-10T21:34:48.880Z,35.63
2022-11-10T21:39:34.161Z,34.92
2022-11-10T21:44:19.135Z,33.08
2022-11-10T21:49:08.070Z,31.67
2022-11-10T21:53:53.300Z,41.00
2022-11-10T21:58:39.164Z,39.17
2022-11-10T22:03:24.517Z,43.83
2022-11-10T22:08:12.757Z,42.33
2022-11-10T22:13:10.537Z,38.42
2022-11-10T22:18:07.979Z,40.65
2022-11-10T22:22:53.306Z,39.75
2022-11-10T22:27:40.934Z,45.75
2022-11-10T22:32:26.357Z,41.50
2022-11-10T22:37:11.358Z,37.95
2022-11-10T22:42:08.985Z,43.97
2022-11-10T22:46:56.630Z,44.67
2022-11-10T22:51:41.976Z,46.15
2022-11-10T22:56:27.165Z,41.70
2022-11-10T23:01:14.172Z,39.97
2022-11-10T23:06:02.128Z,49.55
2022-11-10T23:10:47.439Z,48.70
2022-11-10T23:15:34.705Z,44.85
2022-11-10T23:20:23.203Z,49.65
2022-11-10T23:25:12.499Z,45.53
2022-11-10T23:29:58.155Z,54.75
2022-11-10T23:34:44.128Z,52.15
2022-11-10T23:39:29.830Z,52.20
2022-11-10T23:44:18.297Z,46.78
2022-11-10T23:49:03.909Z,47.28
2022-11-10T23:53:49.890Z,50.63
2022-11-10T23:58:35.483Z,40.25
